Time;durP1;ratioP1;P1;durP2;ratioP2;P2;SDS_P1;SDS_P2;PMS_P1;PMS_P2;Temp;Humidity;BMP_temperature;BMP_pressure;BME280_temperature;BME280_humidity;BME280_pressure;Samples;Min_cycle;Max_cycle;Signal;HPM_P1;HPM_P2
2022/09/26 00:01:16;;;;;;;2.22;1.55;;;18.60;99.90;;;;;;4147277;28;20740;-72
2022/09/26 00:03:19;;;;;;;1.70;1.50;;;18.60;99.90;;;;;;4147550;28;20344;-72
2022/09/26 00:05:21;;;;;;;2.00;1.38;;;18.60;99.90;;;;;;4136461;28;20214;-72
2022/09/26 00:07:23;;;;;;;1.60;1.48;;;18.60;99.90;;;;;;4145703;28;20244;-71
2022/09/26 00:09:27;;;;;;;1.42;1.27;;;18.60;99.90;;;;;;4147600;28;20268;-71
2022/09/26 00:11:32;;;;;;;2.13;1.50;;;18.60;99.90;;;;;;4147523;28;20217;-72
2022/09/26 00:13:39;;;;;;;1.55;1.25;;;18.60;99.90;;;;;;4147121;28;20279;-72
2022/09/26 00:15:41;;;;;;;2.47;1.40;;;18.50;99.90;;;;;;4147297;28;20267;-72
2022/09/26 00:17:44;;;;;;;2.45;1.35;;;18.50;99.90;;;;;;4147264;28;20217;-71
2022/09/26 00:19:46;;;;;;;1.70;1.60;;;18.60;99.90;;;;;;4140157;28;20279;-72
2022/09/26 00:21:48;;;;;;;1.83;1.48;;;18.60;99.90;;;;;;4147344;28;20591;-72
2022/09/26 00:23:51;;;;;;;1.75;1.50;;;18.60;99.90;;;;;;4147411;28;20229;-72
2022/09/26 00:25:56;;;;;;;1.48;1.20;;;18.60;99.90;;;;;;4147328;28;20263;-71
2022/09/26 00:27:58;;;;;;;2.03;1.50;;;18.50;99.90;;;;;;4147219;28;20217;-72
2022/09/26 00:30:02;;;;;;;1.65;1.30;;;18.50;99.90;;;;;;4147234;28;20221;-71
2022/09/26 00:32:05;;;;;;;2.38;1.50;;;18.50;99.90;;;;;;4147283;28;20268;-72
2022/09/26 00:34:08;;;;;;;2.08;1.48;;;18.50;99.90;;;;;;4147385;28;20255;-71
2022/09/26 00:36:10;;;;;;;2.60;1.77;;;18.50;99.90;;;;;;4146841;28;20221;-72
2022/09/26 00:38:12;;;;;;;2.53;1.50;;;18.50;99.90;;;;;;4146227;28;20518;-72
2022/09/26 00:40:15;;;;;;;1.50;1.40;;;18.50;99.90;;;;;;4146910;28;20212;-72
2022/09/26 00:42:17;;;;;;;1.23;1.13;;;18.60;99.90;;;;;;4146749;28;20282;-71
2022/09/26 00:44:44;;;;;;;1.60;1.50;;;18.50;99.90;;;;;;4147035;28;20701;-72
2022/09/26 00:46:48;;;;;;;1.67;1.55;;;18.50;99.90;;;;;;4143732;28;20263;-72
2022/09/26 00:48:59;;;;;;;1.83;1.50;;;18.50;99.90;;;;;;4146982;28;20216;-72
2022/09/26 00:51:01;;;;;;;2.22;1.52;;;18.50;99.90;;;;;;4146715;28;20287;-72
2022/09/26 00:53:09;;;;;;;1.65;1.35;;;18.60;99.90;;;;;;4146564;28;20213;-72
2022/09/26 00:55:17;;;;;;;1.52;1.17;;;18.50;99.90;;;;;;4147168;28;20220;-71
2022/09/26 00:57:23;;;;;;;1.63;1.25;;;18.50;99.90;;;;;;4146420;28;20225;-72
2022/09/26 00:59:30;;;;;;;1.55;1.40;;;18.50;99.90;;;;;;4147198;28;20237;-72
2022/09/26 01:01:33;;;;;;;2.22;1.40;;;18.50;99.90;;;;;;4147025;28;20267;-72
2022/09/26 01:03:39;;;;;;;2.45;1.50;;;18.50;99.90;;;;;;4147054;28;20743;-72
2022/09/26 01:05:42;;;;;;;1.85;1.40;;;18.50;99.90;;;;;;4146909;28;20654;-72
2022/09/26 01:07:45;;;;;;;2.10;1.55;;;18.50;99.90;;;;;;4147479;28;20213;-73
2022/09/26 01:09:48;;;;;;;1.90;1.58;;;18.60;99.90;;;;;;4146481;28;20656;-72
2022/09/26 01:11:52;;;;;;;2.22;1.40;;;18.50;99.90;;;;;;4146775;28;20225;-72
2022/09/26 01:13:55;;;;;;;1.40;1.30;;;18.50;99.90;;;;;;4146230;28;20630;-72
2022/09/26 01:15:57;;;;;;;1.50;1.35;;;18.50;99.90;;;;;;4147034;28;20597;-72
2022/09/26 01:17:59;;;;;;;2.38;1.65;;;18.50;99.90;;;;;;4146416;28;20727;-72
2022/09/26 01:20:14;;;;;;;1.98;1.25;;;18.50;99.90;;;;;;4146860;28;20228;-72
2022/09/26 01:22:43;;;;;;;1.55;1.40;;;18.50;99.90;;;;;;4135482;28;20927;-71
2022/09/26 01:25:07;;;;;;;3.08;1.48;;;18.50;99.90;;;;;;4146918;28;20221;-71
2022/09/26 01:27:45;;;;;;;1.80;1.20;;;18.50;99.90;;;;;;4146095;28;20736;-72
2022/09/26 01:30:06;;;;;;;1.77;1.40;;;18.50;99.90;;;;;;4145980;28;20267;-72
2022/09/26 01:34:43;;;;;;;1.63;1.30;;;18.50;99.90;;;;;;4133886;28;20275;-72
2022/09/26 01:37:06;;;;;;;1.75;1.23;;;18.50;99.90;;;;;;4150252;28;20287;-72
2022/09/26 01:39:20;;;;;;;1.55;1.35;;;18.50;99.90;;;;;;4149598;28;20213;-71
2022/09/26 01:41:38;;;;;;;1.65;1.50;;;18.50;99.90;;;;;;4149936;28;20217;-71
2022/09/26 01:43:49;;;;;;;1.90;1.40;;;18.40;99.90;;;;;;4149930;28;20645;-71
2022/09/26 01:45:59;;;;;;;1.50;1.30;;;18.50;99.90;;;;;;4144180;28;20225;-72
2022/09/26 01:48:06;;;;;;;1.58;1.40;;;18.40;99.90;;;;;;4149388;28;20212;-71
2022/09/26 01:50:17;;;;;;;1.83;1.40;;;18.50;99.90;;;;;;4149696;28;20258;-72
2022/09/26 01:52:27;;;;;;;1.42;1.20;;;18.50;99.90;;;;;;4144090;28;20247;-72
2022/09/26 01:54:36;;;;;;;2.92;1.45;;;18.40;99.90;;;;;;4149427;28;20224;-71
2022/09/26 01:56:40;;;;;;;2.15;1.40;;;18.40;99.90;;;;;;4150037;28;20213;-72
2022/09/26 01:58:49;;;;;;;2.15;1.40;;;18.40;99.90;;;;;;4149782;28;20686;-72
2022/09/26 02:00:57;;;;;;;1.77;1.30;;;18.40;99.90;;;;;;4149153;28;20228;-72
2022/09/26 02:03:01;;;;;;;1.73;1.40;;;18.40;99.90;;;;;;4149254;28;20577;-71
2022/09/26 02:05:07;;;;;;;1.58;1.35;;;18.50;99.90;;;;;;4149504;28;20260;-71
2022/09/26 02:07:13;;;;;;;3.22;1.63;;;18.50;99.90;;;;;;4149462;28;20213;-72
2022/09/26 02:09:19;;;;;;;1.98;1.50;;;18.40;99.90;;;;;;4145209;28;20229;-71
2022/09/26 02:11:23;;;;;;;1.80;1.20;;;18.50;99.90;;;;;;4148938;28;20255;-71
2022/09/26 02:13:30;;;;;;;2.35;1.70;;;18.40;99.90;;;;;;4149586;28;20248;-71
2022/09/26 02:15:34;;;;;;;3.15;1.70;;;18.40;99.90;;;;;;4148997;28;20225;-72
2022/09/26 02:17:41;;;;;;;2.85;1.70;;;18.40;99.90;;;;;;4148960;28;20269;-72
2022/09/26 02:19:50;;;;;;;1.80;1.58;;;18.40;99.90;;;;;;4148974;28;20221;-72
2022/09/26 02:21:53;;;;;;;1.42;1.20;;;18.40;99.90;;;;;;4146449;28;20561;-72
2022/09/26 02:23:55;;;;;;;2.03;1.45;;;18.50;99.90;;;;;;4149180;28;20295;-72
2022/09/26 02:25:58;;;;;;;2.30;1.30;;;18.50;99.90;;;;;;4149163;28;20225;-72
2022/09/26 02:28:02;;;;;;;1.75;1.48;;;18.40;99.90;;;;;;4148832;28;20225;-72
2022/09/26 02:30:06;;;;;;;2.20;1.52;;;18.40;99.90;;;;;;4148777;28;20225;-72
2022/09/26 02:32:14;;;;;;;1.83;1.20;;;18.50;99.90;;;;;;4149221;28;20307;-72
2022/09/26 02:34:18;;;;;;;1.95;1.30;;;18.40;99.90;;;;;;4148879;28;20291;-72
2022/09/26 02:36:22;;;;;;;2.50;1.30;;;18.40;99.90;;;;;;4149090;28;20268;-72
2022/09/26 02:38:26;;;;;;;1.98;1.70;;;18.40;99.90;;;;;;4148101;28;20583;-72
2022/09/26 02:40:36;;;;;;;3.30;1.65;;;18.50;99.90;;;;;;4148900;28;20268;-72
2022/09/26 02:42:50;;;;;;;2.10;1.55;;;18.50;99.90;;;;;;4149134;28;20283;-71
2022/09/26 02:45:21;;;;;;;2.22;1.30;;;18.50;99.90;;;;;;4148972;28;20553;-72
2022/09/26 02:47:47;;;;;;;1.33;1.20;;;18.40;99.90;;;;;;4148478;28;20213;-71
2022/09/26 02:50:14;;;;;;;2.22;1.30;;;18.50;99.90;;;;;;4148674;28;20253;-71
2022/09/26 02:52:30;;;;;;;1.73;1.42;;;18.40;99.90;;;;;;4144777;28;20213;-72
2022/09/26 02:54:42;;;;;;;2.80;1.38;;;18.50;99.90;;;;;;4147995;28;20255;-71
2022/09/26 02:56:58;;;;;;;2.47;1.40;;;18.40;99.90;;;;;;4148908;28;20267;-72
2022/09/26 02:59:09;;;;;;;1.77;1.52;;;18.50;99.90;;;;;;4148706;28;20661;-72
2022/09/26 03:01:18;;;;;;;1.98;1.40;;;18.40;99.90;;;;;;4148598;28;20631;-72
2022/09/26 03:03:25;;;;;;;1.85;1.50;;;18.40;99.90;;;;;;4148691;28;21036;-72
2022/09/26 03:05:30;;;;;;;2.30;1.30;;;18.40;99.90;;;;;;4148178;28;20224;-72
2022/09/26 03:07:37;;;;;;;1.85;1.25;;;18.40;99.90;;;;;;4148263;28;20285;-72
2022/09/26 03:09:41;;;;;;;1.67;1.45;;;18.40;99.90;;;;;;4148309;28;20217;-71
2022/09/26 03:11:44;;;;;;;2.25;1.40;;;18.40;99.90;;;;;;4148095;28;20229;-71
2022/09/26 03:13:47;;;;;;;1.58;1.30;;;18.50;99.90;;;;;;4145919;28;20213;-72
2022/09/26 03:15:53;;;;;;;1.67;1.33;;;18.50;99.90;;;;;;4147750;28;20909;-72
2022/09/26 03:17:59;;;;;;;2.15;1.25;;;18.40;99.90;;;;;;4148218;28;20621;-71
2022/09/26 03:20:06;;;;;;;2.55;1.45;;;18.40;99.90;;;;;;4148449;28;20205;-72
2022/09/26 03:22:11;;;;;;;1.50;1.30;;;18.40;99.90;;;;;;4148226;28;20262;-72
2022/09/26 03:24:14;;;;;;;2.67;1.40;;;18.40;99.90;;;;;;4148183;28;20283;-72
2022/09/26 03:26:20;;;;;;;1.70;1.10;;;18.40;99.90;;;;;;4148303;28;20650;-72
2022/09/26 03:28:23;;;;;;;1.88;1.20;;;18.40;99.90;;;;;;4148115;28;20260;-72
2022/09/26 03:30:25;;;;;;;2.25;1.40;;;18.40;99.90;;;;;;4132845;28;20221;-72
2022/09/26 03:32:28;;;;;;;2.33;1.40;;;18.40;99.90;;;;;;4147959;28;20658;-72
2022/09/26 03:34:30;;;;;;;2.35;1.20;;;18.40;99.90;;;;;;4148115;28;20260;-71
2022/09/26 03:36:33;;;;;;;2.22;1.30;;;18.40;99.90;;;;;;4148072;28;20263;-72
2022/09/26 03:38:36;;;;;;;2.03;1.38;;;18.40;99.90;;;;;;4147670;28;20217;-72
2022/09/26 03:40:39;;;;;;;1.73;1.17;;;18.40;99.90;;;;;;4147773;28;20271;-71
2022/09/26 03:42:41;;;;;;;2.50;1.40;;;18.40;99.90;;;;;;4147765;28;20537;-72
2022/09/26 03:44:43;;;;;;;1.77;1.23;;;18.40;99.90;;;;;;4147865;28;20263;-71
2022/09/26 03:46:46;;;;;;;2.17;1.25;;;18.40;99.90;;;;;;4147741;28;20221;-72
2022/09/26 03:48:49;;;;;;;3.28;1.52;;;18.40;99.90;;;;;;4146839;28;20736;-71
2022/09/26 03:50:51;;;;;;;2.20;1.63;;;18.40;99.90;;;;;;4147211;28;20775;-72
2022/09/26 03:52:54;;;;;;;2.00;1.50;;;18.40;99.90;;;;;;4147493;28;20263;-71
2022/09/26 03:54:57;;;;;;;2.35;1.15;;;18.40;99.90;;;;;;4147570;28;20213;-72
2022/09/26 03:57:00;;;;;;;1.33;1.10;;;18.40;99.90;;;;;;4147581;28;20221;-71
2022/09/26 03:59:02;;;;;;;1.95;1.48;;;18.40;99.90;;;;;;4147948;28;20264;-72
2022/09/26 04:01:06;;;;;;;1.75;1.30;;;18.40;99.90;;;;;;4147833;28;20268;-71
2022/09/26 04:03:09;;;;;;;1.65;1.33;;;18.40;99.90;;;;;;4147776;28;20275;-71
2022/09/26 04:05:11;;;;;;;2.47;1.20;;;18.40;99.90;;;;;;4147493;28;20233;-72
2022/09/26 04:07:13;;;;;;;1.27;1.17;;;18.40;99.90;;;;;;4147582;28;20213;-72
2022/09/26 04:09:16;;;;;;;1.58;1.23;;;18.40;99.90;;;;;;4147191;28;20272;-71
2022/09/26 04:11:21;;;;;;;1.70;1.38;;;18.40;99.90;;;;;;4147597;28;20689;-72
2022/09/26 04:13:24;;;;;;;3.63;1.35;;;18.40;99.90;;;;;;4147222;28;20217;-72
2022/09/26 04:15:27;;;;;;;1.83;1.48;;;18.40;99.90;;;;;;4147679;28;20256;-72
2022/09/26 04:17:29;;;;;;;2.17;1.33;;;18.40;99.90;;;;;;4147554;28;20264;-71
2022/09/26 04:19:32;;;;;;;1.67;1.10;;;18.40;99.90;;;;;;4147299;28;20217;-71
2022/09/26 04:21:35;;;;;;;2.38;1.35;;;18.40;99.90;;;;;;4147454;28;20240;-72
2022/09/26 04:23:39;;;;;;;2.50;1.50;;;18.40;99.90;;;;;;4147290;28;20221;-72
2022/09/26 04:25:42;;;;;;;1.85;1.13;;;18.40;99.90;;;;;;4146953;28;20701;-71
2022/09/26 04:27:45;;;;;;;3.45;1.40;;;18.40;99.90;;;;;;4147289;28;20221;-73
2022/09/26 04:29:47;;;;;;;2.35;1.65;;;18.40;99.90;;;;;;4147454;28;20283;-73
2022/09/26 04:31:50;;;;;;;3.13;1.45;;;18.40;99.90;;;;;;4147266;28;20568;-74
2022/09/26 04:33:53;;;;;;;2.33;1.50;;;18.40;99.90;;;;;;4146941;28;20263;-73
2022/09/26 04:35:59;;;;;;;1.67;1.33;;;18.40;99.90;;;;;;4146538;28;20217;-73
2022/09/26 04:38:03;;;;;;;4.35;1.65;;;18.40;99.90;;;;;;4146591;28;20287;-73
2022/09/26 04:40:06;;;;;;;2.25;1.33;;;18.40;99.90;;;;;;4134719;28;20287;-73
2022/09/26 04:42:08;;;;;;;2.50;1.45;;;18.40;99.90;;;;;;4146900;28;20209;-73
2022/09/26 04:44:14;;;;;;;2.20;1.40;;;18.40;99.90;;;;;;4146512;28;20213;-73
2022/09/26 04:46:19;;;;;;;1.70;1.48;;;18.40;99.90;;;;;;4147046;28;20221;-73
2022/09/26 04:48:21;;;;;;;1.88;1.52;;;18.40;99.90;;;;;;4146727;28;20217;-71
2022/09/26 04:50:24;;;;;;;1.70;1.50;;;18.40;99.90;;;;;;4146652;28;20629;-72
2022/09/26 04:52:26;;;;;;;3.05;1.50;;;18.40;99.90;;;;;;4146996;28;20217;-71
2022/09/26 04:54:29;;;;;;;2.20;1.60;;;18.40;99.90;;;;;;4146641;28;20273;-71
2022/09/26 04:56:31;;;;;;;1.85;1.17;;;18.40;99.90;;;;;;4146747;28;20221;-71
2022/09/26 04:58:33;;;;;;;2.25;1.58;;;18.40;99.90;;;;;;4146843;28;20244;-71
2022/09/26 05:00:40;;;;;;;2.47;1.55;;;18.40;99.90;;;;;;4146955;28;20276;-71
2022/09/26 05:02:46;;;;;;;3.22;1.60;;;18.40;99.90;;;;;;4139963;28;20221;-71
2022/09/26 05:04:48;;;;;;;3.28;1.10;;;18.40;99.90;;;;;;4140613;28;20233;-72
2022/09/26 05:06:50;;;;;;;1.90;1.60;;;18.40;99.90;;;;;;4140985;28;20213;-72
2022/09/26 05:08:53;;;;;;;1.42;1.20;;;18.40;99.90;;;;;;4146722;28;20217;-72
2022/09/26 05:10:57;;;;;;;1.85;1.30;;;18.40;99.90;;;;;;4146983;28;20228;-72
2022/09/26 05:12:59;;;;;;;1.75;1.27;;;18.30;99.90;;;;;;4147059;28;20263;-72
2022/09/26 05:15:04;;;;;;;2.30;1.50;;;18.40;99.90;;;;;;4146644;28;20220;-71
2022/09/26 05:17:10;;;;;;;2.60;1.30;;;18.40;99.90;;;;;;4146650;28;20291;-72
2022/09/26 05:19:12;;;;;;;2.58;1.50;;;18.30;99.90;;;;;;4146807;28;20614;-71
2022/09/26 05:21:14;;;;;;;1.50;1.17;;;18.40;99.90;;;;;;4146740;28;20248;-72
2022/09/26 05:26:18;;;;;;;1.67;1.38;;;18.30;99.90;;;;;;4147060;28;20283;-72
2022/09/26 05:28:01;;;;;;;1.85;1.35;;;18.40;99.90;;;;;;4141595;28;20197;-72
2022/09/26 05:30:04;;;;;;;1.45;1.25;;;18.40;99.90;;;;;;4146558;28;20255;-72
2022/09/26 05:32:09;;;;;;;2.00;1.50;;;18.40;99.90;;;;;;4146980;28;20908;-72
2022/09/26 05:34:14;;;;;;;1.80;1.35;;;18.30;99.90;;;;;;4146499;28;20213;-72
2022/09/26 05:36:16;;;;;;;2.30;1.67;;;18.40;99.90;;;;;;4146592;28;20213;-72
2022/09/26 05:38:19;;;;;;;1.63;1.48;;;18.40;99.90;;;;;;4146333;28;20259;-72
2022/09/26 05:42:41;;;;;;;2.35;1.70;;;18.30;99.90;;;;;;4146439;28;20578;-72
2022/09/26 05:44:43;;;;;;;3.13;1.58;;;18.40;99.90;;;;;;4145450;28;20666;-72
2022/09/26 05:46:46;;;;;;;1.50;1.27;;;18.40;99.90;;;;;;4146370;28;20646;-72
2022/09/26 05:48:50;;;;;;;2.95;1.60;;;18.30;99.90;;;;;;4145986;28;20263;-72
2022/09/26 05:50:52;;;;;;;1.42;1.30;;;18.30;99.90;;;;;;4145981;28;20338;-72
2022/09/26 05:52:57;;;;;;;2.45;1.40;;;18.40;99.90;;;;;;4145504;28;20295;-72
2022/09/26 05:54:59;;;;;;;1.20;1.00;;;18.40;99.90;;;;;;4145955;28;20213;-72
2022/09/26 05:57:02;;;;;;;1.60;1.15;;;18.40;99.90;;;;;;4138555;28;20349;-72
2022/09/26 05:59:04;;;;;;;1.63;1.33;;;18.40;99.90;;;;;;4146091;28;20287;-72
2022/09/26 06:01:08;;;;;;;1.40;1.30;;;18.40;99.90;;;;;;4146504;28;21857;-72
2022/09/26 06:03:11;;;;;;;2.45;1.83;;;18.40;99.90;;;;;;4145810;28;20229;-72
2022/09/26 06:05:15;;;;;;;2.20;1.35;;;18.40;99.90;;;;;;4146048;28;20299;-72
2022/09/26 06:07:17;;;;;;;2.42;1.42;;;18.40;99.90;;;;;;4145338;28;20630;-72
2022/09/26 06:09:19;;;;;;;1.95;1.23;;;18.30;99.90;;;;;;4139691;28;20300;-72
2022/09/26 06:11:26;;;;;;;1.80;1.40;;;18.40;99.90;;;;;;4142178;28;20287;-72
2022/09/26 06:13:29;;;;;;;1.88;1.48;;;18.40;99.90;;;;;;4148534;28;20273;-72
2022/09/26 06:15:32;;;;;;;2.00;1.67;;;18.40;99.90;;;;;;4148834;28;20225;-72
2022/09/26 06:17:34;;;;;;;1.95;1.38;;;18.40;99.90;;;;;;4144613;28;20663;-72
2022/09/26 06:19:37;;;;;;;1.90;1.40;;;18.40;99.90;;;;;;4139138;28;20259;-72
2022/09/26 06:21:42;;;;;;;2.67;1.48;;;18.40;99.90;;;;;;4149273;28;20280;-72
2022/09/26 06:23:45;;;;;;;2.13;1.50;;;18.40;99.90;;;;;;4149144;28;20221;-72
2022/09/26 06:25:49;;;;;;;2.05;1.38;;;18.40;99.90;;;;;;4139518;28;20705;-72
2022/09/26 06:27:55;;;;;;;2.20;1.58;;;18.40;99.90;;;;;;4148889;28;20276;-72
2022/09/26 06:29:57;;;;;;;2.85;1.67;;;18.40;99.90;;;;;;4143921;28;20225;-72
2022/09/26 06:32:00;;;;;;;2.45;1.52;;;18.30;99.90;;;;;;4149164;28;20298;-72
2022/09/26 06:34:04;;;;;;;2.50;1.48;;;18.40;99.90;;;;;;4148956;28;20225;-72
2022/09/26 06:36:08;;;;;;;2.22;1.40;;;18.30;99.90;;;;;;4148712;28;20267;-73
2022/09/26 06:38:11;;;;;;;2.17;1.50;;;18.40;99.90;;;;;;4147936;28;20720;-72
2022/09/26 06:40:14;;;;;;;2.25;1.40;;;18.30;99.90;;;;;;4147781;28;20217;-73
2022/09/26 06:42:16;;;;;;;2.28;1.75;;;18.30;99.90;;;;;;4146437;28;20220;-73
2022/09/26 06:44:19;;;;;;;3.28;1.30;;;18.30;99.90;;;;;;4146332;28;20259;-73
2022/09/26 06:46:27;;;;;;;7.03;1.67;;;18.30;99.90;;;;;;4144873;28;20233;-72
2022/09/26 06:48:35;;;;;;;7.22;1.98;;;18.30;99.90;;;;;;4144716;28;20208;-72
2022/09/26 06:50:38;;;;;;;3.75;1.77;;;18.30;99.90;;;;;;4147661;28;20240;-77
2022/09/26 06:52:51;;;;;;;3.90;1.90;;;18.30;99.90;;;;;;4148223;28;20221;-71
2022/09/26 06:55:03;;;;;;;3.40;1.80;;;18.30;99.90;;;;;;4144734;28;20213;-74
2022/09/26 06:57:06;;;;;;;5.15;1.65;;;18.30;99.90;;;;;;4135443;28;20217;-73
2022/09/26 06:59:09;;;;;;;5.28;1.98;;;18.30;99.90;;;;;;4144010;28;20218;-75
2022/09/26 07:01:13;;;;;;;7.35;1.88;;;18.30;99.90;;;;;;4139073;28;20654;-75
2022/09/26 07:03:18;;;;;;;5.95;1.88;;;18.30;99.90;;;;;;4144247;28;20239;-74
2022/09/26 07:05:51;;;;;;;4.55;1.83;;;18.40;99.90;;;;;;4143790;28;20221;-73
2022/09/26 07:07:54;;;;;;;5.55;1.70;;;18.40;99.90;;;;;;4129450;28;20217;-72
2022/09/26 07:09:58;;;;;;;6.43;2.05;;;18.30;99.90;;;;;;4137914;28;20251;-74
2022/09/26 07:12:00;;;;;;;5.63;2.25;;;18.40;99.90;;;;;;4138229;28;20814;-74
2022/09/26 07:14:03;;;;;;;3.50;2.03;;;18.40;99.90;;;;;;4138739;28;20225;-74
2022/09/26 07:16:06;;;;;;;6.38;2.13;;;18.60;99.90;;;;;;4140154;28;20217;-73
2022/09/26 07:18:19;;;;;;;3.38;2.00;;;18.60;99.90;;;;;;4134981;28;20264;-75
2022/09/26 07:20:22;;;;;;;6.05;2.17;;;18.50;99.90;;;;;;4138807;28;20225;-75
2022/09/26 07:22:24;;;;;;;4.05;1.60;;;18.50;99.90;;;;;;4135562;28;20213;-75
2022/09/26 07:24:27;;;;;;;5.70;2.03;;;18.50;99.90;;;;;;4141647;28;20988;-75
2022/09/26 07:26:30;;;;;;;6.20;1.98;;;18.60;99.90;;;;;;4141577;28;20701;-77
2022/09/26 07:28:33;;;;;;;5.97;2.17;;;18.60;99.90;;;;;;4137839;28;20264;-76
2022/09/26 07:30:36;;;;;;;3.83;2.20;;;18.60;99.90;;;;;;4138661;28;20217;-77
2022/09/26 07:32:40;;;;;;;4.20;1.60;;;18.60;99.90;;;;;;4136908;28;20275;-76
2022/09/26 07:34:43;;;;;;;4.75;1.95;;;18.60;99.90;;;;;;4127485;28;20225;-76
2022/09/26 07:36:46;;;;;;;3.10;1.80;;;18.60;99.90;;;;;;4139451;28;20213;-77
2022/09/26 07:38:48;;;;;;;5.68;2.10;;;18.70;99.90;;;;;;4142380;28;21082;-76
2022/09/26 07:40:53;;;;;;;5.05;2.17;;;18.70;99.90;;;;;;4140631;28;20646;-77
2022/09/26 07:43:01;;;;;;;6.47;1.95;;;18.70;99.90;;;;;;4140017;28;20226;-75
2022/09/26 07:45:03;;;;;;;6.35;2.00;;;18.70;99.90;;;;;;4140852;28;20546;-76
2022/09/26 07:51:45;;;;;;;6.97;2.33;;;18.70;99.90;;;;;;4140035;28;20226;-76
2022/09/26 07:53:49;;;;;;;3.38;2.10;;;18.70;99.90;;;;;;4139950;28;20221;-78
2022/09/26 07:56:09;;;;;;;3.83;1.90;;;18.70;99.90;;;;;;4136477;28;20306;-75
2022/09/26 07:58:12;;;;;;;5.05;2.00;;;18.80;99.90;;;;;;4137844;28;20275;-77
2022/09/26 08:00:17;;;;;;;3.90;2.13;;;18.80;99.90;;;;;;4137981;28;20316;-75
2022/09/26 08:02:21;;;;;;;10.82;2.13;;;18.80;99.90;;;;;;4138260;28;20221;-75
2022/09/26 08:04:24;;;;;;;10.02;2.47;;;18.80;99.90;;;;;;4138754;28;20221;-77
2022/09/26 08:06:26;;;;;;;6.85;2.35;;;18.80;99.90;;;;;;4138290;28;20283;-75
2022/09/26 08:08:29;;;;;;;4.38;2.20;;;18.90;99.90;;;;;;4138142;28;20221;-76
2022/09/26 08:10:34;;;;;;;4.82;2.38;;;18.90;99.90;;;;;;4140407;28;20213;-76
2022/09/26 08:12:38;;;;;;;6.25;2.40;;;19.00;99.90;;;;;;4140896;28;20221;-78
2022/09/26 08:14:42;;;;;;;11.77;2.10;;;19.00;99.90;;;;;;4136701;28;20319;-78
2022/09/26 08:16:44;;;;;;;4.70;1.95;;;19.00;99.90;;;;;;4134532;28;20243;-77
2022/09/26 08:18:47;;;;;;;6.00;2.00;;;19.00;99.90;;;;;;4141770;28;20720;-78
2022/09/26 08:20:49;;;;;;;5.18;1.83;;;19.10;99.90;;;;;;4141814;28;20291;-79
2022/09/26 08:22:55;;;;;;;7.65;2.08;;;19.10;99.90;;;;;;4140272;28;20221;-77
2022/09/26 08:24:59;;;;;;;5.28;2.13;;;19.10;99.90;;;;;;4139873;28;20271;-79
2022/09/26 08:27:01;;;;;;;4.85;2.15;;;19.10;99.90;;;;;;4140181;28;20237;-80
2022/09/26 08:29:03;;;;;;;7.50;2.30;;;19.10;99.90;;;;;;4136114;28;21037;-79
2022/09/26 08:31:07;;;;;;;9.77;2.17;;;19.10;99.90;;;;;;4137573;28;20217;-77
2022/09/26 08:33:11;;;;;;;10.75;2.72;;;19.10;99.90;;;;;;4143078;28;20217;-78
2022/09/26 08:35:13;;;;;;;11.05;2.17;;;19.10;99.90;;;;;;4142317;28;20209;-81
2022/09/26 08:37:16;;;;;;;6.60;2.30;;;19.10;99.90;;;;;;4142289;28;21076;-79
2022/09/26 08:39:18;;;;;;;8.07;2.10;;;19.10;99.90;;;;;;4137965;28;20225;-78
2022/09/26 08:41:42;;;;;;;5.40;2.25;;;19.10;99.90;;;;;;4137067;28;20259;-76
2022/09/26 08:43:57;;;;;;;7.30;2.60;;;19.10;99.90;;;;;;4141213;28;20221;-76
2022/09/26 08:48:49;;;;;;;3.28;1.95;;;19.10;99.90;;;;;;4136888;28;20216;-76
2022/09/26 08:50:58;;;;;;;7.28;2.50;;;19.10;99.90;;;;;;4133991;28;20275;-80
2022/09/26 08:53:05;;;;;;;8.15;2.40;;;19.10;99.90;;;;;;4135692;28;20247;-79
2022/09/26 08:55:14;;;;;;;7.65;2.45;;;19.10;99.90;;;;;;4139939;28;20221;-79
2022/09/26 08:57:29;;;;;;;8.10;2.22;;;19.10;99.90;;;;;;4135610;28;20217;-80
2022/09/26 08:59:37;;;;;;;9.05;2.25;;;19.10;99.90;;;;;;4137568;28;20217;-79
2022/09/26 09:01:45;;;;;;;7.53;2.63;;;19.10;99.90;;;;;;4140846;28;20220;-79
2022/09/26 09:03:53;;;;;;;7.07;2.40;;;19.20;99.90;;;;;;4139082;28;20285;-81
2022/09/26 09:06:01;;;;;;;4.93;2.10;;;19.20;99.90;;;;;;4138368;28;20221;-83
2022/09/26 09:08:10;;;;;;;4.93;2.20;;;19.20;99.90;;;;;;4133432;28;20229;-82
2022/09/26 09:10:17;;;;;;;5.90;2.00;;;19.20;99.90;;;;;;4136430;28;20217;-82
2022/09/26 09:12:26;;;;;;;8.38;2.38;;;19.20;99.90;;;;;;4136833;28;20254;-83
2022/09/26 09:14:42;;;;;;;6.00;1.65;;;19.10;99.90;;;;;;4127415;28;20250;-80
2022/09/26 09:17:01;;;;;;;7.38;2.10;;;19.10;99.90;;;;;;4129351;28;20213;-75
2022/09/26 09:19:11;;;;;;;8.23;2.17;;;19.10;99.90;;;;;;4119263;28;20635;-78
2022/09/26 09:21:24;;;;;;;4.97;2.15;;;19.10;99.90;;;;;;4130474;28;20224;-78
2022/09/26 09:23:51;;;;;;;6.22;2.20;;;19.10;99.90;;;;;;4132532;28;20231;-79
2022/09/26 09:26:05;;;;;;;3.22;1.77;;;19.10;99.90;;;;;;4125954;28;20300;-78
2022/09/26 09:28:15;;;;;;;6.72;2.38;;;19.10;99.90;;;;;;4128530;28;20311;-79
2022/09/26 09:30:21;;;;;;;5.57;2.00;;;19.10;99.90;;;;;;4127011;28;20225;-79
2022/09/26 09:32:30;;;;;;;4.50;2.28;;;19.10;99.90;;;;;;4136031;28;20271;-76
2022/09/26 09:34:39;;;;;;;4.60;2.47;;;19.20;99.90;;;;;;4140201;28;20716;-75
2022/09/26 09:36:45;;;;;;;6.78;2.35;;;19.10;99.90;;;;;;4139201;28;20217;-77
2022/09/26 09:38:49;;;;;;;5.53;2.08;;;19.20;99.90;;;;;;4135851;28;20267;-77
2022/09/26 09:40:59;;;;;;;6.95;1.90;;;19.10;99.90;;;;;;4136721;28;20220;-75
2022/09/26 09:43:04;;;;;;;8.43;2.40;;;19.10;99.90;;;;;;4136295;28;20267;-76
2022/09/26 09:45:14;;;;;;;4.00;2.03;;;19.10;99.90;;;;;;4136777;28;20283;-76
2022/09/26 09:47:18;;;;;;;5.82;2.22;;;19.10;99.90;;;;;;4131983;28;20249;-75
2022/09/26 09:49:23;;;;;;;5.20;2.08;;;19.00;99.90;;;;;;4138617;28;20268;-78
2022/09/26 09:51:35;;;;;;;8.02;2.28;;;19.00;99.90;;;;;;4138511;28;20230;-77
2022/09/26 09:53:52;;;;;;;11.55;2.40;;;19.00;99.90;;;;;;4144664;28;20286;-77
2022/09/26 09:56:07;;;;;;;6.95;2.10;;;19.10;99.90;;;;;;4138035;28;20658;-77
2022/09/26 09:58:43;;;;;;;5.82;2.50;;;19.10;99.90;;;;;;4137733;28;20217;-77
2022/09/26 10:00:51;;;;;;;5.50;2.40;;;19.10;99.90;;;;;;4142015;28;20232;-78
2022/09/26 10:03:00;;;;;;;4.13;2.10;;;19.20;99.90;;;;;;4142486;28;20228;-79
2022/09/26 10:05:16;;;;;;;6.05;1.95;;;19.20;99.90;;;;;;4129911;28;20216;-79
2022/09/26 10:07:19;;;;;;;4.22;2.17;;;19.20;99.90;;;;;;4140265;28;20295;-77
2022/09/26 10:09:27;;;;;;;5.78;2.08;;;19.10;99.90;;;;;;4142208;28;20846;-78
2022/09/26 10:11:40;;;;;;;6.40;2.30;;;19.20;99.90;;;;;;4136821;28;20229;-78
2022/09/26 10:13:45;;;;;;;6.13;2.35;;;19.20;99.90;;;;;;4140406;28;20267;-79
2022/09/26 10:15:56;;;;;;;6.20;2.40;;;19.20;99.90;;;;;;4139717;28;20292;-80
2022/09/26 10:18:04;;;;;;;6.43;1.95;;;19.20;99.90;;;;;;4140957;28;20213;-79
2022/09/26 10:20:41;;;;;;;3.38;2.10;;;19.20;99.90;;;;;;4140088;28;20270;-79
2022/09/26 10:22:45;;;;;;;3.33;1.83;;;19.20;99.90;;;;;;4141077;28;20205;-78
2022/09/26 10:24:48;;;;;;;4.68;2.28;;;19.20;99.90;;;;;;4142122;28;20210;-78
2022/09/26 10:26:50;;;;;;;5.28;1.80;;;19.20;99.90;;;;;;4138972;28;20283;-79
2022/09/26 10:28:55;;;;;;;4.05;2.00;;;19.20;99.90;;;;;;4144582;28;20245;-80
2022/09/26 10:31:05;;;;;;;4.72;2.55;;;19.20;99.90;;;;;;4141345;28;20217;-80
2022/09/26 10:33:24;;;;;;;5.75;2.17;;;19.20;99.90;;;;;;4141004;28;20630;-78
2022/09/26 10:35:30;;;;;;;3.70;2.08;;;19.20;99.90;;;;;;4139723;28;20217;-79
2022/09/26 10:37:36;;;;;;;5.45;2.30;;;19.20;99.90;;;;;;4134479;28;20263;-76
2022/09/26 10:42:00;;;;;;;4.00;1.88;;;19.10;99.90;;;;;;4138099;28;20206;-77
2022/09/26 10:44:03;;;;;;;5.93;2.03;;;19.20;99.90;;;;;;4138467;28;20720;-76
2022/09/26 10:46:10;;;;;;;5.43;2.25;;;19.20;99.90;;;;;;4140009;28;20267;-77
2022/09/26 10:48:13;;;;;;;7.45;2.28;;;19.20;99.90;;;;;;4137855;28;20232;-76
2022/09/26 10:50:17;;;;;;;4.38;1.98;;;19.20;99.90;;;;;;4128249;28;20961;-77
2022/09/26 10:52:25;;;;;;;4.57;2.22;;;19.10;99.90;;;;;;4134840;28;21434;-76
2022/09/26 10:54:40;;;;;;;5.43;2.45;;;19.20;99.90;;;;;;4143586;28;20216;-78
2022/09/26 10:56:46;;;;;;;3.83;2.42;;;19.20;99.90;;;;;;4144748;28;20221;-77
2022/09/26 10:58:50;;;;;;;5.10;2.10;;;19.20;99.90;;;;;;4141627;28;20210;-77
2022/09/26 11:00:56;;;;;;;5.32;2.22;;;19.20;99.90;;;;;;4149430;28;20243;-77
2022/09/26 11:02:58;;;;;;;4.10;2.13;;;19.20;99.90;;;;;;4156423;28;20240;-78
2022/09/26 11:07:34;;;;;;;4.72;1.83;;;19.20;99.90;;;;;;4143629;28;20197;-73
2022/09/26 11:09:38;;;;;;;3.83;2.17;;;19.20;99.90;;;;;;4141152;28;21042;-73
2022/09/26 11:11:41;;;;;;;4.38;2.05;;;19.20;99.90;;;;;;4144152;28;20279;-72
2022/09/26 11:13:48;;;;;;;4.85;2.30;;;19.20;99.90;;;;;;4144122;28;20221;-73
2022/09/26 11:16:00;;;;;;;6.13;2.50;;;19.20;99.90;;;;;;4137822;28;20325;-72